Time;durP1;ratioP1;P1;durP2;ratioP2;P2;SDS_P1;SDS_P2;PMS_P1;PMS_P2;Temp;Humidity;BMP_temperature;BMP_pressure;BME280_temperature;BME280_humidity;BME280_pressure;Samples;Min_cycle;Max_cycle;Signal;HPM_P1;HPM_P2
2023/10/30 05:30:26;;;;;;;0.10;0.10;;;12.10;88.40;;;;;;6167379;22;20017;31
2023/10/30 05:32:52;;;;;;;0.10;0.10;;;12.20;88.20;;;;;;4952956;29;20054;-82
2023/10/30 05:35:17;;;;;;;0.10;0.10;;;12.20;88.40;;;;;;4960856;29;20027;-82
2023/10/30 05:37:43;;;;;;;0.00;0.00;;;12.20;88.20;;;;;;4961132;29;20100;-82
2023/10/30 05:40:09;;;;;;;0.10;0.10;;;12.20;88.00;;;;;;4960572;29;20079;-82
2023/10/30 05:42:35;;;;;;;0.10;0.10;;;12.20;87.90;;;;;;4960944;28;20050;-82
2023/10/30 05:45:00;;;;;;;0.10;0.10;;;12.10;87.80;;;;;;4960444;29;20023;-82
2023/10/30 05:47:26;;;;;;;0.10;0.10;;;12.10;88.00;;;;;;4961100;29;20023;-82
2023/10/30 05:49:51;;;;;;;0.10;0.10;;;12.10;87.90;;;;;;4959651;28;20027;-81
2023/10/30 05:52:17;;;;;;;0.03;0.03;;;12.10;87.80;;;;;;4944140;29;20039;-82
2023/10/30 05:54:43;;;;;;;0.10;0.10;;;12.10;87.80;;;;;;4946509;29;20031;-82
2023/10/30 05:57:10;;;;;;;0.05;0.05;;;12.10;87.80;;;;;;4960333;29;20299;-82
2023/10/30 05:59:36;;;;;;;0.10;0.10;;;12.10;87.80;;;;;;4943522;29;20478;-82
2023/10/30 06:02:01;;;;;;;0.10;0.10;;;12.10;87.80;;;;;;4940146;29;20059;-82
2023/10/30 06:04:27;;;;;;;0.00;0.00;;;12.10;87.60;;;;;;4957286;29;20031;-82
2023/10/30 06:06:54;;;;;;;0.10;0.10;;;12.10;87.70;;;;;;4960487;29;20106;-82
2023/10/30 06:09:19;;;;;;;0.10;0.10;;;12.10;87.70;;;;;;4960371;29;20084;-82
2023/10/30 06:11:48;;;;;;;0.05;0.05;;;12.00;87.40;;;;;;4959046;29;20042;-83
2023/10/30 06:14:15;;;;;;;0.10;0.10;;;12.00;87.70;;;;;;4943269;29;20082;-82
2023/10/30 06:16:41;;;;;;;0.10;0.10;;;12.00;87.60;;;;;;4959549;29;20043;-82
2023/10/30 06:19:07;;;;;;;0.10;0.10;;;12.00;87.30;;;;;;4959822;29;20483;-83
2023/10/30 06:21:33;;;;;;;0.10;0.10;;;12.00;87.50;;;;;;4957539;29;20062;-83
2023/10/30 06:23:58;;;;;;;0.10;0.10;;;12.00;87.70;;;;;;4924026;29;20031;-82
2023/10/30 06:26:24;;;;;;;0.10;0.10;;;12.00;87.70;;;;;;4941358;29;20083;-82
2023/10/30 06:28:49;;;;;;;0.10;0.10;;;12.00;87.70;;;;;;4941054;29;20518;-83
2023/10/30 06:31:19;;;;;;;0.10;0.10;;;12.10;87.70;;;;;;4941150;29;20051;-82
2023/10/30 06:33:46;;;;;;;0.10;0.10;;;12.10;87.60;;;;;;4967605;28;20439;-83
2023/10/30 06:36:11;;;;;;;0.10;0.10;;;12.10;87.60;;;;;;4960151;29;20039;-83
2023/10/30 06:38:37;;;;;;;0.08;0.08;;;12.10;87.70;;;;;;4960050;29;20394;-82
2023/10/30 06:41:04;;;;;;;0.10;0.10;;;12.10;87.70;;;;;;4973071;28;20035;-82
2023/10/30 06:43:30;;;;;;;0.10;0.10;;;12.10;87.60;;;;;;4959896;29;20038;-83
2023/10/30 06:46:03;;;;;;;0.10;0.10;;;12.10;87.70;;;;;;4960268;29;20027;-82
2023/10/30 06:48:28;;;;;;;0.00;0.00;;;12.10;87.60;;;;;;4960240;29;20356;-82
2023/10/30 06:50:55;;;;;;;0.00;0.00;;;12.10;87.60;;;;;;4971187;28;20039;-83
2023/10/30 06:53:21;;;;;;;0.00;0.00;;;12.10;87.20;;;;;;4936245;29;20500;-84
2023/10/30 06:55:46;;;;;;;0.10;0.10;;;12.10;87.60;;;;;;4972014;28;20127;-84
2023/10/30 06:58:12;;;;;;;0.10;0.10;;;12.00;87.50;;;;;;4958599;29;20514;-81
2023/10/30 07:00:38;;;;;;;0.10;0.10;;;11.90;87.60;;;;;;4949742;28;20090;-83
2023/10/30 07:03:04;;;;;;;0.10;0.10;;;11.90;87.90;;;;;;4958570;29;20478;-82
2023/10/30 07:05:30;;;;;;;0.10;0.10;;;12.00;87.90;;;;;;4954038;29;20030;-80
2023/10/30 07:07:56;;;;;;;0.10;0.10;;;12.00;87.70;;;;;;4951212;29;20024;-82
2023/10/30 07:10:21;;;;;;;0.10;0.10;;;12.00;87.50;;;;;;4939751;29;20656;-83
2023/10/30 07:12:47;;;;;;;0.10;0.10;;;12.00;87.70;;;;;;4941477;29;20055;-79
2023/10/30 07:15:13;;;;;;;0.10;0.10;;;12.10;87.70;;;;;;4958972;29;20049;-78
2023/10/30 07:17:39;;;;;;;0.10;0.10;;;12.00;87.50;;;;;;4958153;29;20085;-80
2023/10/30 07:20:05;;;;;;;0.10;0.10;;;12.10;87.70;;;;;;4958745;29;20043;-79
2023/10/30 07:22:30;;;;;;;0.10;0.10;;;12.10;87.60;;;;;;4973767;28;20035;-82
2023/10/30 07:24:56;;;;;;;0.10;0.10;;;12.10;87.70;;;;;;4958693;29;20031;-82
2023/10/30 07:27:22;;;;;;;0.10;0.10;;;12.10;87.70;;;;;;4974138;28;20032;-89
2023/10/30 07:29:48;;;;;;;0.10;0.10;;;12.20;87.60;;;;;;4959442;29;20074;-85
2023/10/30 07:32:14;;;;;;;0.10;0.10;;;12.20;87.40;;;;;;4973728;28;20051;-87
2023/10/30 07:34:44;;;;;;;0.00;0.00;;;12.20;87.60;;;;;;4958136;29;20039;-84
2023/10/30 07:37:10;;;;;;;0.10;0.10;;;12.20;87.60;;;;;;4958668;29;20483;-88
2023/10/30 07:39:35;;;;;;;0.10;0.10;;;12.20;87.60;;;;;;4950821;29;20051;-81
2023/10/30 07:42:01;;;;;;;0.10;0.10;;;12.20;87.50;;;;;;4958611;29;20031;-80
2023/10/30 07:44:27;;;;;;;0.10;0.10;;;12.20;87.50;;;;;;4958817;29;20046;-85
2023/10/30 07:46:53;;;;;;;0.00;0.00;;;12.30;87.60;;;;;;4955976;29;20027;-86
2023/10/30 07:49:19;;;;;;;0.10;0.10;;;12.30;87.50;;;;;;4955627;28;20023;-83
2023/10/30 07:51:45;;;;;;;0.10;0.10;;;12.30;87.60;;;;;;4958773;29;20087;-83
2023/10/30 07:54:11;;;;;;;0.10;0.10;;;12.30;87.50;;;;;;4955988;29;20070;-82
2023/10/30 07:56:36;;;;;;;0.10;0.10;;;12.20;87.40;;;;;;4951899;29;20023;-80
2023/10/30 07:59:05;;;;;;;0.10;0.10;;;12.30;87.40;;;;;;4956958;29;20574;-82
2023/10/30 08:01:31;;;;;;;0.10;0.10;;;12.30;87.40;;;;;;4957699;29;20498;-84
2023/10/30 08:03:57;;;;;;;0.10;0.10;;;12.20;87.20;;;;;;4957794;29;20407;-81
2023/10/30 08:06:24;;;;;;;0.10;0.10;;;12.30;87.60;;;;;;4954557;29;20050;-85
2023/10/30 08:08:49;;;;;;;0.10;0.10;;;12.30;87.70;;;;;;4945646;29;20496;-82
2023/10/30 08:11:15;;;;;;;0.10;0.10;;;12.30;87.50;;;;;;4952164;29;20034;-81
2023/10/30 08:13:41;;;;;;;0.10;0.10;;;12.30;87.40;;;;;;4939814;29;20027;-78
2023/10/30 08:16:07;;;;;;;0.10;0.10;;;12.40;87.50;;;;;;4939755;29;20031;-77
2023/10/30 08:18:32;;;;;;;0.00;0.00;;;12.40;87.30;;;;;;4939188;29;20039;-82
2023/10/30 08:20:59;;;;;;;0.10;0.10;;;12.40;87.40;;;;;;4939526;29;20028;-83
2023/10/30 08:23:24;;;;;;;0.10;0.10;;;12.50;87.50;;;;;;4939854;29;20118;-84
2023/10/30 08:25:50;;;;;;;0.10;0.10;;;12.50;87.50;;;;;;4953319;28;20125;-85
2023/10/30 08:28:16;;;;;;;0.10;0.10;;;12.50;87.30;;;;;;4951603;29;20081;-79
2023/10/30 08:30:42;;;;;;;0.10;0.10;;;12.40;87.30;;;;;;4953871;28;20031;-79
2023/10/30 08:33:08;;;;;;;0.10;0.10;;;12.40;87.50;;;;;;4937801;29;20031;-82
2023/10/30 08:35:46;;;;;;;0.10;0.10;;;12.50;87.50;;;;;;4937951;29;20079;-90
2023/10/30 08:38:12;;;;;;;0.10;0.10;;;12.50;87.60;;;;;;4935692;29;20399;-78
2023/10/30 08:40:38;;;;;;;0.10;0.10;;;12.60;87.30;;;;;;4937568;29;20111;-82
2023/10/30 08:43:03;;;;;;;0.10;0.10;;;12.60;87.40;;;;;;4933374;29;20028;-80
2023/10/30 08:45:29;;;;;;;0.10;0.10;;;12.60;87.40;;;;;;4938184;29;20020;-81
2023/10/30 08:47:55;;;;;;;0.00;0.00;;;12.60;87.40;;;;;;4937739;29;20056;-84
2023/10/30 08:50:20;;;;;;;0.10;0.10;;;12.60;87.30;;;;;;4938947;29;20079;-85
2023/10/30 08:52:46;;;;;;;0.10;0.10;;;12.60;87.20;;;;;;4937815;29;20024;-81
2023/10/30 08:55:12;;;;;;;0.10;0.10;;;12.60;87.40;;;;;;4920998;29;20039;-81
2023/10/30 08:57:37;;;;;;;0.00;0.00;;;12.60;87.30;;;;;;4934624;29;20032;-87
2023/10/30 09:00:07;;;;;;;0.10;0.10;;;12.60;87.10;;;;;;4938958;29;20032;-85
2023/10/30 09:02:33;;;;;;;0.10;0.10;;;12.70;87.30;;;;;;4921149;29;20121;-86
2023/10/30 09:04:59;;;;;;;0.10;0.10;;;12.80;87.30;;;;;;4918894;29;20099;-87
2023/10/30 09:07:24;;;;;;;0.10;0.10;;;12.80;86.90;;;;;;4938261;29;20537;-87
2023/10/30 09:09:50;;;;;;;0.10;0.10;;;12.80;87.30;;;;;;4921402;29;20039;-85
2023/10/30 09:12:17;;;;;;;0.10;0.10;;;12.80;87.30;;;;;;4932412;29;20403;-79
2023/10/30 09:14:42;;;;;;;0.10;0.10;;;13.00;86.90;;;;;;4938485;29;20020;-79
2023/10/30 09:17:08;;;;;;;0.10;0.10;;;13.00;86.80;;;;;;4937397;29;20063;-79
2023/10/30 09:19:36;;;;;;;0.10;0.10;;;13.10;86.50;;;;;;4921351;29;20034;-79
2023/10/30 09:22:01;;;;;;;0.10;0.10;;;13.10;86.60;;;;;;4937680;29;20035;-80
2023/10/30 09:24:27;;;;;;;0.10;0.10;;;13.00;85.60;;;;;;4918845;29;20036;-79
2023/10/30 09:26:53;;;;;;;0.10;0.10;;;13.10;86.70;;;;;;4922961;29;20591;-79
2023/10/30 09:29:18;;;;;;;0.10;0.10;;;13.00;86.20;;;;;;4929397;29;20035;-80
2023/10/30 09:31:44;;;;;;;0.10;0.10;;;13.00;86.40;;;;;;4952966;29;20047;-82
2023/10/30 09:34:10;;;;;;;0.00;0.00;;;13.20;86.20;;;;;;4960960;29;20483;-84
2023/10/30 09:36:36;;;;;;;0.10;0.10;;;13.10;86.40;;;;;;4962033;29;20102;-92
2023/10/30 09:39:01;;;;;;;0.10;0.10;;;13.10;86.50;;;;;;4960442;29;20054;-89
2023/10/30 09:41:28;;;;;;;0.10;0.10;;;13.00;86.40;;;;;;4959138;29;20139;-90
2023/10/30 09:43:55;;;;;;;0.10;0.10;;;13.00;86.40;;;;;;4955109;29;20063;-84
2023/10/30 09:46:28;;;;;;;0.10;0.10;;;13.00;86.60;;;;;;4947681;29;20035;-89
2023/10/30 09:48:55;;;;;;;0.10;0.10;;;12.90;86.20;;;;;;4949176;29;20027;-87
2023/10/30 09:51:21;;;;;;;0.10;0.10;;;12.90;86.50;;;;;;4948573;29;20358;-82
2023/10/30 09:53:48;;;;;;;0.10;0.10;;;13.00;86.80;;;;;;4910370;28;20611;-84
2023/10/30 09:56:16;;;;;;;0.10;0.10;;;13.00;86.60;;;;;;4854239;28;20821;-83
2023/10/30 09:58:42;;;;;;;0.10;0.10;;;13.00;86.60;;;;;;4913244;29;20031;-85
2023/10/30 10:01:07;;;;;;;0.10;0.10;;;13.00;86.40;;;;;;4972989;28;20045;-86
2023/10/30 10:03:33;;;;;;;0.10;0.10;;;13.00;86.30;;;;;;4942585;29;20031;-84
2023/10/30 10:06:00;;;;;;;0.10;0.10;;;13.00;86.10;;;;;;4857394;29;20032;-84
2023/10/30 10:08:26;;;;;;;0.10;0.10;;;13.00;86.80;;;;;;4926285;28;20055;-82
2023/10/30 10:10:59;;;;;;;0.00;0.00;;;13.00;86.20;;;;;;4922908;28;20440;-86
2023/10/30 10:13:26;;;;;;;;;;;13.00;86.40;;;;;;4901944;29;20098;-84
2023/10/30 10:15:52;;;;;;;0.00;0.00;;;13.00;86.60;;;;;;4959363;29;19941;-89
2023/10/30 10:18:29;;;;;;;0.00;0.00;;;13.00;86.50;;;;;;4972897;28;20050;-88
2023/10/30 10:21:00;;;;;;;0.10;0.10;;;13.00;86.80;;;;;;4958319;29;20123;-86
2023/10/30 10:23:33;;;;;;;0.10;0.10;;;13.10;86.70;;;;;;4951458;29;20450;-85
2023/10/30 10:26:03;;;;;;;0.10;0.10;;;13.20;86.50;;;;;;4941441;29;20028;-92
2023/10/30 10:28:29;;;;;;;0.10;0.10;;;13.20;86.60;;;;;;4960816;28;20038;-85
2023/10/30 10:30:55;;;;;;;0.10;0.10;;;13.20;86.60;;;;;;4959823;29;20119;-83
2023/10/30 10:33:22;;;;;;;0.10;0.10;;;13.20;86.30;;;;;;4949534;29;20121;-83
2023/10/30 10:36:01;;;;;;;0.10;0.10;;;13.20;86.50;;;;;;4947335;28;20074;-84
2023/10/30 10:38:27;;;;;;;0.05;0.05;;;13.30;86.40;;;;;;4967040;28;20040;-87
2023/10/30 10:40:55;;;;;;;0.10;0.10;;;13.30;86.40;;;;;;4954338;29;20030;-83
2023/10/30 10:43:22;;;;;;;0.10;0.10;;;13.30;86.50;;;;;;4953721;29;20047;-81
2023/10/30 10:45:49;;;;;;;0.00;0.00;;;13.30;86.50;;;;;;4959202;29;20042;-81
2023/10/30 10:48:16;;;;;;;0.10;0.10;;;13.20;86.20;;;;;;4950184;29;20042;-77
2023/10/30 10:50:43;;;;;;;0.10;0.10;;;13.20;86.70;;;;;;4949187;28;20111;-81
2023/10/30 10:53:12;;;;;;;0.10;0.10;;;13.10;86.60;;;;;;4941393;29;20074;-84
2023/10/30 10:55:48;;;;;;;0.00;0.00;;;13.00;86.80;;;;;;4968949;23;20108;-87
2023/10/30 10:58:29;;;;;;;0.00;0.00;;;13.10;87.00;;;;;;4984921;28;20124;-88
2023/10/30 11:00:54;;;;;;;0.10;0.10;;;13.10;87.00;;;;;;4982482;28;20022;-89
2023/10/30 11:03:21;;;;;;;0.10;0.10;;;13.20;87.10;;;;;;4969481;28;20069;-86
2023/10/30 11:05:52;;;;;;;0.10;0.10;;;13.30;87.10;;;;;;4980124;28;20045;-92
2023/10/30 11:08:46;;;;;;;0.10;0.10;;;13.30;87.00;;;;;;4972761;28;20031;-87
2023/10/30 11:11:22;;;;;;;0.10;0.10;;;13.30;86.90;;;;;;4978630;28;20034;-77
2023/10/30 11:13:51;;;;;;;0.10;0.10;;;13.30;86.90;;;;;;4976944;28;20511;-85
2023/10/30 11:16:26;;;;;;;0.10;0.10;;;13.30;86.90;;;;;;4979807;28;20056;-87
2023/10/30 11:18:55;;;;;;;0.10;0.10;;;13.30;86.90;;;;;;4997812;28;20113;-83
2023/10/30 11:21:25;;;;;;;0.10;0.10;;;13.30;87.20;;;;;;5001303;28;20034;-79
2023/10/30 11:24:03;;;;;;;0.10;0.10;;;13.30;87.20;;;;;;5002521;28;20477;-82
2023/10/30 11:26:41;;;;;;;0.00;0.00;;;13.30;87.20;;;;;;4977640;28;20045;-80
2023/10/30 11:29:21;;;;;;;0.00;0.00;;;13.30;87.00;;;;;;4988245;28;20061;-78
2023/10/30 11:31:51;;;;;;;0.10;0.10;;;13.20;87.20;;;;;;4968926;28;20023;-81
2023/10/30 11:34:16;;;;;;;0.00;0.00;;;13.10;87.30;;;;;;4998525;28;20042;-81
2023/10/30 11:36:45;;;;;;;0.10;0.10;;;13.00;88.00;;;;;;5007877;28;20133;-78
2023/10/30 11:39:11;;;;;;;0.10;0.10;;;13.00;88.10;;;;;;4989746;28;20038;-79
2023/10/30 11:41:40;;;;;;;0.10;0.10;;;13.00;88.30;;;;;;4979540;28;20033;-80
2023/10/30 11:44:13;;;;;;;0.10;0.10;;;13.10;88.20;;;;;;4976655;28;20055;-83
2023/10/30 11:46:45;;;;;;;0.00;0.00;;;13.10;88.10;;;;;;4960820;28;20023;-84
2023/10/30 11:49:15;;;;;;;0.10;0.10;;;13.10;88.10;;;;;;4987025;28;20109;-86
2023/10/30 11:51:44;;;;;;;0.10;0.10;;;13.00;88.10;;;;;;4974991;28;20026;-83
2023/10/30 11:54:10;;;;;;;0.10;0.10;;;13.00;88.00;;;;;;4981418;28;20033;-87
2023/10/30 11:56:36;;;;;;;0.10;0.10;;;13.00;88.20;;;;;;4978561;28;20047;-80
2023/10/30 11:59:04;;;;;;;0.10;0.10;;;13.00;88.10;;;;;;4985472;28;20027;-78
2023/10/30 12:01:32;;;;;;;0.10;0.10;;;13.10;88.10;;;;;;4966730;28;20026;-77
2023/10/30 12:03:59;;;;;;;0.10;0.10;;;13.10;88.20;;;;;;5008124;28;20033;-79
2023/10/30 12:06:26;;;;;;;0.10;0.10;;;13.10;88.10;;;;;;4998145;28;20023;-86
2023/10/30 12:08:52;;;;;;;0.10;0.10;;;13.00;88.30;;;;;;4987468;28;20030;-87
2023/10/30 12:11:18;;;;;;;0.10;0.10;;;13.00;88.20;;;;;;4993763;28;20022;-87
2023/10/30 12:13:46;;;;;;;0.10;0.10;;;12.90;87.60;;;;;;4985584;28;20121;-83
2023/10/30 12:16:12;;;;;;;0.08;0.08;;;12.90;87.80;;;;;;4975584;28;20065;-81
2023/10/30 12:18:37;;;;;;;0.10;0.10;;;12.80;86.50;;;;;;4990852;28;20041;-82
2023/10/30 12:21:07;;;;;;;0.10;0.10;;;12.70;87.10;;;;;;4993415;28;20018;-82
2023/10/30 12:23:33;;;;;;;0.10;0.10;;;12.70;87.40;;;;;;4976974;28;20128;-82
2023/10/30 12:26:05;;;;;;;0.10;0.10;;;12.70;87.70;;;;;;4986495;28;20053;-83
2023/10/30 12:28:37;;;;;;;0.10;0.10;;;12.70;87.50;;;;;;4991949;28;20069;-83
2023/10/30 12:31:23;;;;;;;0.10;0.10;;;12.80;87.40;;;;;;4994969;28;20500;-83
2023/10/30 12:34:06;;;;;;;0.10;0.10;;;12.80;87.20;;;;;;4975183;28;20304;-84
2023/10/30 12:36:32;;;;;;;0.10;0.10;;;13.00;86.90;;;;;;4988189;28;20030;-83
2023/10/30 12:39:17;;;;;;;0.10;0.10;;;13.10;86.70;;;;;;4992009;28;20041;-84
2023/10/30 12:41:44;;;;;;;0.10;0.10;;;13.30;86.90;;;;;;4994571;28;20031;-84
2023/10/30 12:44:10;;;;;;;0.10;0.10;;;13.60;86.70;;;;;;4993396;28;20498;-84
2023/10/30 12:46:36;;;;;;;0.10;0.10;;;13.80;85.90;;;;;;4994946;28;20031;-84
2023/10/30 12:49:02;;;;;;;0.10;0.10;;;14.00;86.00;;;;;;4972261;28;20022;-84
2023/10/30 12:51:28;;;;;;;0.10;0.10;;;14.20;85.30;;;;;;4993918;28;20612;-88
2023/10/30 12:53:53;;;;;;;0.10;0.10;;;14.40;85.60;;;;;;4988550;28;20116;-84
2023/10/30 12:56:19;;;;;;;0.10;0.10;;;14.50;85.30;;;;;;4992502;28;20074;-84
2023/10/30 12:58:45;;;;;;;0.00;0.00;;;14.50;83.90;;;;;;4990488;28;20476;-83
2023/10/30 13:01:11;;;;;;;0.00;0.00;;;14.40;84.30;;;;;;4992105;28;20038;-84
2023/10/30 13:03:36;;;;;;;0.10;0.10;;;14.40;84.00;;;;;;4994149;28;20057;-84
2023/10/30 13:06:02;;;;;;;0.10;0.10;;;14.40;83.80;;;;;;4991970;28;20057;-84
2023/10/30 13:08:28;;;;;;;0.10;0.10;;;14.40;83.80;;;;;;4995995;28;20022;-83
2023/10/30 13:10:53;;;;;;;0.10;0.10;;;14.40;84.00;;;;;;4999909;28;20026;-80
2023/10/30 13:13:19;;;;;;;0.10;0.10;;;14.40;83.90;;;;;;4989187;28;20022;-83
2023/10/30 13:15:47;;;;;;;0.10;0.10;;;14.40;84.10;;;;;;4981036;28;20466;-83
2023/10/30 13:18:13;;;;;;;0.10;0.10;;;14.50;84.10;;;;;;4980206;28;20030;-86
2023/10/30 13:20:39;;;;;;;0.10;0.10;;;14.50;83.80;;;;;;4988802;28;20034;-86
2023/10/30 13:23:05;;;;;;;0.10;0.10;;;14.60;83.80;;;;;;4999084;28;20033;-85
2023/10/30 13:25:33;;;;;;;0.10;0.10;;;14.70;83.00;;;;;;4981643;28;20031;-86
2023/10/30 13:27:59;;;;;;;0.10;0.10;;;14.50;82.90;;;;;;4980700;28;20094;-86
2023/10/30 13:30:25;;;;;;;0.08;0.08;;;14.40;82.80;;;;;;4980314;28;20058;-85
2023/10/30 13:32:56;;;;;;;0.00;0.00;;;14.40;83.10;;;;;;4980513;28;20046;-85
2023/10/30 13:35:24;;;;;;;0.10;0.10;;;14.30;83.60;;;;;;4979861;28;20037;-85
2023/10/30 13:37:50;;;;;;;0.10;0.10;;;14.20;83.10;;;;;;4977204;28;20137;-86
2023/10/30 13:40:16;;;;;;;0.10;0.10;;;14.20;83.20;;;;;;4981201;28;20058;-85
2023/10/30 13:42:41;;;;;;;0.10;0.10;;;14.10;83.60;;;;;;4999651;28;20495;-84
2023/10/30 13:45:08;;;;;;;0.10;0.10;;;14.20;83.30;;;;;;4981895;28;20085;-85
2023/10/30 13:47:34;;;;;;;0.10;0.10;;;14.30;83.60;;;;;;4971831;28;20011;-85
2023/10/30 13:49:59;;;;;;;0.10;0.10;;;14.40;83.50;;;;;;4981582;28;20034;-84
2023/10/30 13:52:25;;;;;;;0.10;0.10;;;14.50;83.20;;;;;;4996345;28;20097;-86
2023/10/30 13:54:52;;;;;;;0.10;0.10;;;14.60;82.70;;;;;;4980180;28;20113;-85
2023/10/30 13:57:21;;;;;;;0.10;0.10;;;14.70;82.50;;;;;;4979574;28;20026;-84
2023/10/30 13:59:47;;;;;;;0.10;0.10;;;14.80;82.80;;;;;;4979048;28;20030;-84
2023/10/30 14:02:14;;;;;;;0.00;0.00;;;14.80;81.80;;;;;;4994556;28;20026;-85
2023/10/30 14:04:40;;;;;;;0.10;0.10;;;14.70;81.90;;;;;;4999377;28;20416;-85
2023/10/30 14:07:06;;;;;;;0.10;0.10;;;14.70;82.50;;;;;;4998734;28;20019;-85
2023/10/30 14:09:32;;;;;;;0.10;0.10;;;14.70;82.20;;;;;;4999167;28;20065;-85
2023/10/30 14:11:57;;;;;;;0.10;0.10;;;14.70;82.30;;;;;;4992414;28;20022;-84
2023/10/30 14:14:23;;;;;;;0.10;0.10;;;14.60;82.10;;;;;;4999213;28;20030;-83
2023/10/30 14:16:51;;;;;;;0.00;0.00;;;14.40;82.20;;;;;;4996346;28;20034;-85
2023/10/30 14:19:16;;;;;;;0.00;0.00;;;14.30;82.50;;;;;;4999449;28;20022;-83
2023/10/30 14:21:44;;;;;;;0.10;0.10;;;14.20;82.20;;;;;;4996052;28;20393;-84
2023/10/30 14:24:09;;;;;;;0.10;0.10;;;14.10;82.60;;;;;;4974023;28;20069;-84
2023/10/30 14:26:37;;;;;;;0.10;0.10;;;14.00;82.00;;;;;;4998110;28;20022;-84
2023/10/30 14:29:03;;;;;;;0.10;0.10;;;14.00;81.20;;;;;;4998075;28;20540;-84
2023/10/30 14:31:28;;;;;;;0.10;0.10;;;14.20;81.70;;;;;;4981384;28;20485;-85
2023/10/30 14:33:54;;;;;;;0.10;0.10;;;14.20;82.20;;;;;;4996370;28;20038;-84
2023/10/30 14:36:20;;;;;;;0.00;0.00;;;14.20;82.80;;;;;;4982780;28;20057;-84
2023/10/30 14:38:45;;;;;;;0.10;0.10;;;14.20;82.20;;;;;;4981429;28;20089;-84
2023/10/30 14:41:11;;;;;;;0.10;0.10;;;14.30;82.00;;;;;;4980980;28;20030;-84
2023/10/30 14:43:37;;;;;;;0.10;0.10;;;14.20;81.90;;;;;;4997961;28;20116;-85
2023/10/30 14:46:03;;;;;;;0.10;0.10;;;14.20;82.40;;;;;;4992805;28;20076;-84
2023/10/30 14:48:30;;;;;;;0.10;0.10;;;14.20;81.80;;;;;;4978445;28;20048;-84
2023/10/30 14:50:56;;;;;;;0.10;0.10;;;14.10;81.80;;;;;;4985571;28;20365;-84
2023/10/30 14:53:22;;;;;;;0.10;0.10;;;14.10;81.70;;;;;;4998774;28;20022;-84
2023/10/30 14:55:48;;;;;;;0.10;0.10;;;14.00;81.70;;;;;;4980299;28;20411;-84
2023/10/30 14:58:13;;;;;;;0.10;0.10;;;14.00;81.80;;;;;;4992404;28;20105;-84
2023/10/30 15:00:39;;;;;;;0.10;0.10;;;14.00;82.10;;;;;;4968978;28;20034;-84
2023/10/30 15:03:05;;;;;;;0.10;0.10;;;13.90;82.10;;;;;;4978004;28;20026;-85
2023/10/30 15:05:30;;;;;;;0.10;0.10;;;14.00;81.70;;;;;;4978542;28;20034;-84
2023/10/30 15:07:56;;;;;;;0.10;0.10;;;14.10;81.90;;;;;;4978945;28;20027;-85
2023/10/30 15:10:22;;;;;;;0.10;0.10;;;14.20;82.10;;;;;;4982623;28;20053;-85
2023/10/30 15:12:48;;;;;;;0.00;0.00;;;14.30;81.60;;;;;;4980776;28;20485;-85
2023/10/30 15:15:15;;;;;;;0.00;0.00;;;14.30;81.70;;;;;;4988241;28;20057;-85
2023/10/30 15:17:40;;;;;;;0.00;0.00;;;14.30;81.40;;;;;;4977457;28;20026;-85
2023/10/30 15:20:06;;;;;;;0.10;0.10;;;14.20;81.50;;;;;;4978364;28;20029;-84
2023/10/30 15:22:32;;;;;;;0.10;0.10;;;14.20;81.60;;;;;;4987973;28;20038;-85
2023/10/30 15:24:58;;;;;;;0.00;0.00;;;14.10;81.70;;;;;;4997965;28;20404;-85
2023/10/30 15:27:25;;;;;;;0.10;0.10;;;14.10;82.30;;;;;;4962629;28;20022;-84
2023/10/30 15:29:51;;;;;;;0.10;0.10;;;14.10;82.00;;;;;;4975543;28;20113;-84
2023/10/30 15:32:17;;;;;;;0.10;0.10;;;14.20;82.10;;;;;;4984496;28;20054;-84
2023/10/30 15:34:43;;;;;;;0.00;0.00;;;14.30;82.20;;;;;;4961064;28;20085;-85
2023/10/30 15:37:09;;;;;;;0.00;0.00;;;14.30;81.90;;;;;;4980799;28;20022;-85
2023/10/30 15:39:34;;;;;;;0.10;0.10;;;14.20;82.40;;;;;;4990274;28;20084;-84
2023/10/30 15:42:00;;;;;;;0.03;0.03;;;14.10;82.50;;;;;;4977874;28;20027;-84
2023/10/30 15:44:26;;;;;;;0.00;0.00;;;14.00;82.80;;;;;;4975076;28;20022;-85
2023/10/30 15:46:52;;;;;;;0.10;0.10;;;14.00;82.60;;;;;;4985312;28;20027;-84
2023/10/30 15:49:18;;;;;;;0.05;0.05;;;14.00;82.40;;;;;;4960630;28;20182;-83
2023/10/30 15:51:44;;;;;;;0.10;0.10;;;13.90;82.20;;;;;;4992958;28;20097;-85
2023/10/30 15:54:09;;;;;;;0.10;0.10;;;14.00;82.20;;;;;;4997281;28;20062;-84
2023/10/30 15:56:35;;;;;;;0.00;0.00;;;14.00;82.10;;;;;;4987018;28;20035;-83
2023/10/30 15:59:00;;;;;;;0.10;0.10;;;13.90;82.00;;;;;;4992395;28;20038;-84
2023/10/30 16:01:26;;;;;;;0.10;0.10;;;13.90;82.00;;;;;;4996533;28;20026;-83
2023/10/30 16:03:52;;;;;;;0.10;0.10;;;13.90;82.20;;;;;;4996899;28;20038;-83
2023/10/30 16:06:18;;;;;;;0.00;0.00;;;13.80;81.90;;;;;;4980034;28;20113;-84
2023/10/30 16:08:43;;;;;;;0.10;0.10;;;13.80;82.50;;;;;;4991624;28;20053;-84
2023/10/30 16:11:09;;;;;;;0.10;0.10;;;13.80;82.50;;;;;;4996196;28;20026;-84
2023/10/30 16:13:35;;;;;;;0.10;0.10;;;13.80;82.30;;;;;;4997198;28;20544;-84
2023/10/30 16:16:02;;;;;;;0.10;0.10;;;13.70;82.50;;;;;;4975574;28;20536;-84
2023/10/30 16:18:29;;;;;;;0.10;0.10;;;13.70;82.30;;;;;;4977598;28;20545;-84
2023/10/30 16:20:55;;;;;;;0.10;0.10;;;13.60;82.60;;;;;;4986108;28;20431;-83
2023/10/30 16:23:21;;;;;;;0.10;0.10;;;13.50;82.70;;;;;;4997300;28;20081;-84
2023/10/30 16:25:46;;;;;;;0.10;0.10;;;13.40;82.70;;;;;;4987943;28;20098;-84
2023/10/30 16:28:12;;;;;;;0.10;0.10;;;13.40;83.10;;;;;;4996556;28;20552;-84
2023/10/30 16:30:38;;;;;;;0.10;0.10;;;13.30;83.30;;;;;;4983966;28;20047;-84
2023/10/30 16:33:04;;;;;;;0.00;0.00;;;13.30;83.70;;;;;;4985487;28;20027;-84
2023/10/30 16:35:29;;;;;;;0.10;0.10;;;13.20;83.60;;;;;;4979601;28;20093;-84
2023/10/30 16:37:55;;;;;;;0.10;0.10;;;13.20;83.90;;;;;;4987114;28;20026;-85
2023/10/30 16:40:21;;;;;;;0.10;0.10;;;13.20;83.90;;;;;;4988077;28;20023;-84
2023/10/30 16:42:46;;;;;;;0.10;0.10;;;13.20;84.10;;;;;;4984054;28;20512;-85
2023/10/30 16:45:12;;;;;;;0.10;0.10;;;13.10;84.10;;;;;;4983369;28;20026;-84
2023/10/30 16:47:41;;;;;;;0.10;0.10;;;13.00;84.20;;;;;;4993464;28;20035;-84
2023/10/30 16:50:07;;;;;;;0.10;0.10;;;13.00;84.10;;;;;;4983430;28;20023;-84
2023/10/30 16:52:33;;;;;;;0.00;0.00;;;12.90;84.40;;;;;;5000144;28;20057;-85
2023/10/30 16:54:59;;;;;;;0.10;0.10;;;12.90;84.60;;;;;;4994642;28;20031;-85
2023/10/30 16:57:24;;;;;;;0.10;0.10;;;12.90;84.70;;;;;;4983395;28;20034;-84
2023/10/30 16:59:52;;;;;;;0.10;0.10;;;12.80;84.80;;;;;;4983226;28;20029;-84
2023/10/30 17:02:18;;;;;;;0.10;0.10;;;12.80;84.90;;;;;;4967759;28;20035;-84
2023/10/30 17:04:43;;;;;;;0.10;0.10;;;12.80;84.80;;;;;;4980921;28;20110;-86
2023/10/30 17:07:12;;;;;;;0.10;0.10;;;12.80;84.80;;;;;;4973846;28;20085;-86
2023/10/30 17:09:38;;;;;;;0.10;0.10;;;12.60;85.00;;;;;;4964177;28;20027;-87
2023/10/30 17:12:04;;;;;;;0.10;0.10;;;12.70;85.30;;;;;;4998124;28;20030;-86
2023/10/30 17:14:30;;;;;;;0.10;0.10;;;12.60;85.30;;;;;;4982825;28;20502;-85
2023/10/30 17:16:56;;;;;;;0.10;0.10;;;12.60;85.40;;;;;;4976309;28;20034;-85
2023/10/30 17:19:22;;;;;;;0.10;0.10;;;12.60;85.50;;;;;;4980858;28;20529;-86
2023/10/30 17:21:48;;;;;;;0.10;0.10;;;12.60;85.50;;;;;;4985907;28;20065;-87
2023/10/30 17:24:13;;;;;;;0.10;0.10;;;12.50;85.60;;;;;;4982282;28;20031;-85
2023/10/30 17:26:39;;;;;;;0.10;0.10;;;12.50;85.50;;;;;;4981994;28;20018;-85
2023/10/30 17:29:05;;;;;;;0.10;0.10;;;12.50;85.70;;;;;;4965065;28;20034;-86
2023/10/30 17:31:31;;;;;;;0.10;0.10;;;12.40;85.60;;;;;;4988653;28;20021;-86
2023/10/30 17:33:57;;;;;;;0.10;0.10;;;12.40;85.60;;;;;;5000167;28;20540;-86
2023/10/30 17:36:22;;;;;;;0.10;0.10;;;12.30;85.80;;;;;;5000067;28;20023;-86
2023/10/30 17:38:48;;;;;;;0.10;0.10;;;12.30;85.70;;;;;;4999793;28;20030;-86
2023/10/30 17:41:15;;;;;;;0.10;0.10;;;12.30;85.70;;;;;;4973081;28;20477;-86
2023/10/30 17:43:41;;;;;;;0.10;0.10;;;12.30;85.50;;;;;;4981864;28;20034;-87
2023/10/30 17:46:07;;;;;;;0.10;0.10;;;12.20;85.60;;;;;;4999049;28;20023;-85
2023/10/30 17:48:32;;;;;;;0.08;0.08;;;12.20;85.70;;;;;;4993262;28;20058;-86
2023/10/30 17:50:58;;;;;;;0.10;0.10;;;12.20;85.90;;;;;;4982313;28;20033;-86
2023/10/30 17:53:24;;;;;;;0.00;0.00;;;12.30;85.90;;;;;;4995637;28;20030;-86
2023/10/30 17:55:50;;;;;;;0.10;0.10;;;12.20;86.00;;;;;;4982326;28;20109;-86
2023/10/30 17:58:16;;;;;;;0.10;0.10;;;12.20;85.90;;;;;;4993996;28;20022;-86
2023/10/30 18:00:42;;;;;;;0.10;0.10;;;12.20;86.00;;;;;;4964346;28;20130;-85
2023/10/30 18:03:08;;;;;;;0.10;0.10;;;12.20;86.00;;;;;;4999346;28;20058;-86
2023/10/30 18:05:34;;;;;;;0.00;0.00;;;12.20;86.10;;;;;;4964828;28;20027;-87
2023/10/30 18:08:00;;;;;;;0.10;0.10;;;12.20;86.10;;;;;;4980190;28;20034;-87
2023/10/30 18:10:27;;;;;;;0.10;0.10;;;12.10;86.20;;;;;;4991349;28;20030;-86
2023/10/30 18:12:53;;;;;;;0.10;0.10;;;12.10;86.20;;;;;;4979808;28;20026;-89
2023/10/30 18:15:19;;;;;;;0.10;0.10;;;12.10;86.10;;;;;;4980964;28;20085;-89